sensor_id;sensor_type;location;lat;lon;timestamp;P1;durP1;ratioP1;P2;durP2;ratioP2
51048;SDS011;37084;55.228;36.450;2022-09-06T00:01:24;1.15;;;1.05;;
51048;SDS011;37084;55.228;36.450;2022-09-06T00:04:25;1.40;;;1.30;;
51048;SDS011;37084;55.228;36.450;2022-09-06T00:07:26;1.52;;;1.38;;
51048;SDS011;37084;55.228;36.450;2022-09-06T00:10:28;2.03;;;1.15;;
51048;SDS011;37084;55.228;36.450;2022-09-06T00:13:30;1.83;;;1.20;;
51048;SDS011;37084;55.228;36.450;2022-09-06T00:16:31;1.27;;;1.08;;
51048;SDS011;37084;55.228;36.450;2022-09-06T00:19:32;1.45;;;1.30;;
51048;SDS011;37084;55.228;36.450;2022-09-06T00:22:34;1.48;;;1.25;;
51048;SDS011;37084;55.228;36.450;2022-09-06T00:25:35;2.45;;;1.77;;
51048;SDS011;37084;55.228;36.450;2022-09-06T00:28:37;2.85;;;1.15;;
51048;SDS011;37084;55.228;36.450;2022-09-06T00:31:38;1.75;;;1.65;;
51048;SDS011;37084;55.228;36.450;2022-09-06T00:34:40;1.25;;;1.13;;
51048;SDS011;37084;55.228;36.450;2022-09-06T00:37:41;1.73;;;1.27;;
51048;SDS011;37084;55.228;36.450;2022-09-06T00:40:42;1.48;;;1.15;;
51048;SDS011;37084;55.228;36.450;2022-09-06T00:43:44;1.88;;;1.52;;
51048;SDS011;37084;55.228;36.450;2022-09-06T00:46:46;2.30;;;1.70;;
51048;SDS011;37084;55.228;36.450;2022-09-06T00:49:49;2.50;;;1.63;;
51048;SDS011;37084;55.228;36.450;2022-09-06T00:52:52;1.70;;;1.60;;
51048;SDS011;37084;55.228;36.450;2022-09-06T00:55:53;3.10;;;1.52;;
51048;SDS011;37084;55.228;36.450;2022-09-06T00:58:55;1.98;;;1.70;;
51048;SDS011;37084;55.228;36.450;2022-09-06T01:01:56;2.97;;;1.83;;
51048;SDS011;37084;55.228;36.450;2022-09-06T01:04:58;1.65;;;1.55;;
51048;SDS011;37084;55.228;36.450;2022-09-06T01:11:08;1.92;;;1.80;;
51048;SDS011;37084;55.228;36.450;2022-09-06T01:18:22;2.15;;;1.75;;
51048;SDS011;37084;55.228;36.450;2022-09-06T01:21:36;2.80;;;2.00;;
51048;SDS011;37084;55.228;36.450;2022-09-06T01:28:16;2.53;;;1.23;;
51048;SDS011;37084;55.228;36.450;2022-09-06T01:31:47;3.30;;;2.45;;
51048;SDS011;37084;55.228;36.450;2022-09-06T01:34:57;2.20;;;1.63;;
51048;SDS011;37084;55.228;36.450;2022-09-06T01:38:05;2.42;;;1.70;;
51048;SDS011;37084;55.228;36.450;2022-09-06T01:41:08;3.15;;;2.35;;
51048;SDS011;37084;55.228;36.450;2022-09-06T01:44:10;3.20;;;2.58;;
51048;SDS011;37084;55.228;36.450;2022-09-06T02:01:18;2.80;;;2.10;;
51048;SDS011;37084;55.228;36.450;2022-09-06T02:04:27;2.88;;;2.10;;
51048;SDS011;37084;55.228;36.450;2022-09-06T02:07:32;3.17;;;2.35;;
51048;SDS011;37084;55.228;36.450;2022-09-06T02:10:45;2.58;;;1.88;;
51048;SDS011;37084;55.228;36.450;2022-09-06T02:14:00;3.17;;;2.88;;
51048;SDS011;37084;55.228;36.450;2022-09-06T02:17:05;4.13;;;2.53;;
51048;SDS011;37084;55.228;36.450;2022-09-06T02:20:14;2.97;;;2.50;;
51048;SDS011;37084;55.228;36.450;2022-09-06T02:23:16;4.45;;;2.35;;
51048;SDS011;37084;55.228;36.450;2022-09-06T02:26:21;3.00;;;2.28;;
51048;SDS011;37084;55.228;36.450;2022-09-06T02:29:24;4.70;;;2.83;;
51048;SDS011;37084;55.228;36.450;2022-09-06T02:32:27;5.25;;;3.40;;
51048;SDS011;37084;55.228;36.450;2022-09-06T02:35:29;3.80;;;2.55;;
51048;SDS011;37084;55.228;36.450;2022-09-06T02:38:31;5.80;;;2.60;;
51048;SDS011;37084;55.228;36.450;2022-09-06T02:41:34;5.18;;;3.22;;
51048;SDS011;37084;55.228;36.450;2022-09-06T02:44:35;3.75;;;2.22;;
51048;SDS011;37084;55.228;36.450;2022-09-06T02:47:43;3.78;;;2.60;;
51048;SDS011;37084;55.228;36.450;2022-09-06T02:50:44;4.47;;;3.10;;
51048;SDS011;37084;55.228;36.450;2022-09-06T02:53:45;3.97;;;2.40;;
51048;SDS011;37084;55.228;36.450;2022-09-06T02:56:46;4.20;;;3.00;;
51048;SDS011;37084;55.228;36.450;2022-09-06T02:59:48;4.22;;;2.75;;
51048;SDS011;37084;55.228;36.450;2022-09-06T03:02:49;4.90;;;3.22;;
51048;SDS011;37084;55.228;36.450;2022-09-06T03:05:51;3.80;;;2.67;;
51048;SDS011;37084;55.228;36.450;2022-09-06T03:08:53;5.35;;;3.38;;
51048;SDS011;37084;55.228;36.450;2022-09-06T03:11:54;4.88;;;3.28;;
51048;SDS011;37084;55.228;36.450;2022-09-06T03:14:55;5.65;;;3.03;;
51048;SDS011;37084;55.228;36.450;2022-09-06T03:17:57;4.65;;;3.45;;
51048;SDS011;37084;55.228;36.450;2022-09-06T03:21:00;6.80;;;3.80;;
51048;SDS011;37084;55.228;36.450;2022-09-06T03:24:01;4.97;;;2.92;;
51048;SDS011;37084;55.228;36.450;2022-09-06T03:27:03;5.65;;;2.80;;
51048;SDS011;37084;55.228;36.450;2022-09-06T03:30:04;4.55;;;3.10;;
51048;SDS011;37084;55.228;36.450;2022-09-06T03:33:07;5.72;;;3.47;;
51048;SDS011;37084;55.228;36.450;2022-09-06T03:36:08;4.47;;;3.10;;
51048;SDS011;37084;55.228;36.450;2022-09-06T03:39:09;4.63;;;2.97;;
51048;SDS011;37084;55.228;36.450;2022-09-06T03:42:11;5.20;;;3.58;;
51048;SDS011;37084;55.228;36.450;2022-09-06T03:45:12;4.75;;;3.28;;
51048;SDS011;37084;55.228;36.450;2022-09-06T03:48:14;5.07;;;3.03;;
51048;SDS011;37084;55.228;36.450;2022-09-06T03:51:16;4.93;;;3.13;;
51048;SDS011;37084;55.228;36.450;2022-09-06T03:54:17;5.65;;;3.25;;
51048;SDS011;37084;55.228;36.450;2022-09-06T03:57:18;6.30;;;3.10;;
51048;SDS011;37084;55.228;36.450;2022-09-06T04:00:19;7.30;;;3.13;;
51048;SDS011;37084;55.228;36.450;2022-09-06T04:03:21;4.35;;;3.17;;
51048;SDS011;37084;55.228;36.450;2022-09-06T04:06:22;4.20;;;3.15;;
51048;SDS011;37084;55.228;36.450;2022-09-06T04:09:23;4.88;;;2.80;;
51048;SDS011;37084;55.228;36.450;2022-09-06T04:12:25;5.10;;;3.47;;
51048;SDS011;37084;55.228;36.450;2022-09-06T04:15:26;4.57;;;2.80;;
51048;SDS011;37084;55.228;36.450;2022-09-06T04:18:27;4.10;;;2.58;;
51048;SDS011;37084;55.228;36.450;2022-09-06T04:21:29;4.07;;;3.00;;
51048;SDS011;37084;55.228;36.450;2022-09-06T04:24:30;4.22;;;3.58;;
51048;SDS011;37084;55.228;36.450;2022-09-06T04:27:32;4.22;;;2.42;;
51048;SDS011;37084;55.228;36.450;2022-09-06T04:30:33;4.55;;;2.72;;
51048;SDS011;37084;55.228;36.450;2022-09-06T04:33:35;3.78;;;2.30;;
51048;SDS011;37084;55.228;36.450;2022-09-06T04:36:37;3.85;;;2.33;;
51048;SDS011;37084;55.228;36.450;2022-09-06T04:39:39;5.22;;;2.90;;
51048;SDS011;37084;55.228;36.450;2022-09-06T04:42:40;3.70;;;2.45;;
51048;SDS011;37084;55.228;36.450;2022-09-06T04:45:42;3.72;;;2.92;;
51048;SDS011;37084;55.228;36.450;2022-09-06T04:48:43;3.25;;;1.90;;
51048;SDS011;37084;55.228;36.450;2022-09-06T04:51:44;2.33;;;1.80;;
51048;SDS011;37084;55.228;36.450;2022-09-06T04:54:46;2.80;;;1.70;;
51048;SDS011;37084;55.228;36.450;2022-09-06T04:57:47;3.63;;;1.42;;
51048;SDS011;37084;55.228;36.450;2022-09-06T05:00:51;2.00;;;1.50;;
51048;SDS011;37084;55.228;36.450;2022-09-06T05:03:52;2.30;;;1.52;;
51048;SDS011;37084;55.228;36.450;2022-09-06T05:07:00;1.70;;;1.60;;
51048;SDS011;37084;55.228;36.450;2022-09-06T05:10:05;1.98;;;1.23;;
51048;SDS011;37084;55.228;36.450;2022-09-06T05:13:07;4.68;;;2.42;;
51048;SDS011;37084;55.228;36.450;2022-09-06T05:16:08;1.52;;;1.13;;
51048;SDS011;37084;55.228;36.450;2022-09-06T05:19:09;1.90;;;1.80;;
51048;SDS011;37084;55.228;36.450;2022-09-06T05:22:11;1.77;;;1.42;;
51048;SDS011;37084;55.228;36.450;2022-09-06T05:25:12;1.83;;;1.70;;
51048;SDS011;37084;55.228;36.450;2022-09-06T05:28:13;2.22;;;1.33;;
51048;SDS011;37084;55.228;36.450;2022-09-06T05:31:25;3.45;;;1.38;;
51048;SDS011;37084;55.228;36.450;2022-09-06T05:34:29;1.38;;;1.27;;
51048;SDS011;37084;55.228;36.450;2022-09-06T05:37:30;1.10;;;1.10;;
51048;SDS011;37084;55.228;36.450;2022-09-06T05:40:31;1.67;;;1.15;;
51048;SDS011;37084;55.228;36.450;2022-09-06T05:43:32;1.15;;;1.05;;
51048;SDS011;37084;55.228;36.450;2022-09-06T05:46:39;1.02;;;0.93;;
51048;SDS011;37084;55.228;36.450;2022-09-06T05:49:41;1.05;;;1.05;;
51048;SDS011;37084;55.228;36.450;2022-09-06T05:52:42;0.95;;;0.90;;
51048;SDS011;37084;55.228;36.450;2022-09-06T05:55:44;1.65;;;1.33;;
51048;SDS011;37084;55.228;36.450;2022-09-06T05:58:45;0.85;;;0.80;;
51048;SDS011;37084;55.228;36.450;2022-09-06T06:01:50;1.13;;;1.13;;
51048;SDS011;37084;55.228;36.450;2022-09-06T06:04:52;0.82;;;0.82;;
51048;SDS011;37084;55.228;36.450;2022-09-06T06:07:54;0.70;;;0.70;;
51048;SDS011;37084;55.228;36.450;2022-09-06T06:10:58;0.65;;;0.65;;
51048;SDS011;37084;55.228;36.450;2022-09-06T06:14:01;0.63;;;0.63;;
51048;SDS011;37084;55.228;36.450;2022-09-06T06:17:02;0.70;;;0.70;;
51048;SDS011;37084;55.228;36.450;2022-09-06T06:20:04;1.00;;;0.90;;
51048;SDS011;37084;55.228;36.450;2022-09-06T06:23:05;1.08;;;0.73;;
51048;SDS011;37084;55.228;36.450;2022-09-06T06:26:07;1.15;;;0.93;;
51048;SDS011;37084;55.228;36.450;2022-09-06T06:29:09;1.42;;;0.90;;
51048;SDS011;37084;55.228;36.450;2022-09-06T06:32:13;0.60;;;0.60;;
51048;SDS011;37084;55.228;36.450;2022-09-06T06:35:19;0.93;;;0.82;;
51048;SDS011;37084;55.228;36.450;2022-09-06T06:38:20;1.65;;;0.63;;
51048;SDS011;37084;55.228;36.450;2022-09-06T06:41:23;1.60;;;0.70;;
51048;SDS011;37084;55.228;36.450;2022-09-06T06:44:28;0.70;;;0.70;;
51048;SDS011;37084;55.228;36.450;2022-09-06T06:47:30;1.00;;;0.82;;
51048;SDS011;37084;55.228;36.450;2022-09-06T06:50:32;2.70;;;0.60;;
51048;SDS011;37084;55.228;36.450;2022-09-06T06:53:33;1.83;;;0.70;;
51048;SDS011;37084;55.228;36.450;2022-09-06T06:56:36;1.02;;;0.60;;
51048;SDS011;37084;55.228;36.450;2022-09-06T06:59:41;0.93;;;0.90;;
51048;SDS011;37084;55.228;36.450;2022-09-06T07:03:15;0.70;;;0.70;;
51048;SDS011;37084;55.228;36.450;2022-09-06T07:06:18;0.70;;;0.60;;
51048;SDS011;37084;55.228;36.450;2022-09-06T07:09:20;0.98;;;0.93;;
51048;SDS011;37084;55.228;36.450;2022-09-06T07:12:22;1.05;;;0.60;;
51048;SDS011;37084;55.228;36.450;2022-09-06T07:15:23;1.23;;;0.70;;
51048;SDS011;37084;55.228;36.450;2022-09-06T07:18:24;1.83;;;1.05;;
51048;SDS011;37084;55.228;36.450;2022-09-06T07:21:25;0.70;;;0.70;;
51048;SDS011;37084;55.228;36.450;2022-09-06T07:24:27;1.00;;;0.73;;
51048;SDS011;37084;55.228;36.450;2022-09-06T07:27:28;0.93;;;0.70;;
51048;SDS011;37084;55.228;36.450;2022-09-06T07:30:29;0.80;;;0.65;;
51048;SDS011;37084;55.228;36.450;2022-09-06T07:33:33;1.35;;;0.93;;
51048;SDS011;37084;55.228;36.450;2022-09-06T07:36:35;2.90;;;0.90;;
51048;SDS011;37084;55.228;36.450;2022-09-06T07:39:36;0.63;;;0.63;;
51048;SDS011;37084;55.228;36.450;2022-09-06T07:42:38;0.95;;;0.95;;
51048;SDS011;37084;55.228;36.450;2022-09-06T07:45:39;1.73;;;1.63;;
51048;SDS011;37084;55.228;36.450;2022-09-06T07:48:41;1.20;;;1.10;;
51048;SDS011;37084;55.228;36.450;2022-09-06T07:51:43;1.25;;;0.63;;
51048;SDS011;37084;55.228;36.450;2022-09-06T07:54:45;0.80;;;0.77;;
51048;SDS011;37084;55.228;36.450;2022-09-06T07:57:47;1.00;;;0.85;;
51048;SDS011;37084;55.228;36.450;2022-09-06T08:00:49;2.17;;;0.85;;
51048;SDS011;37084;55.228;36.450;2022-09-06T08:03:51;0.50;;;0.50;;
51048;SDS011;37084;55.228;36.450;2022-09-06T08:06:52;1.13;;;0.50;;
51048;SDS011;37084;55.228;36.450;2022-09-06T08:09:53;0.50;;;0.50;;
51048;SDS011;37084;55.228;36.450;2022-09-06T08:12:55;0.63;;;0.63;;
51048;SDS011;37084;55.228;36.450;2022-09-06T08:15:59;0.95;;;0.95;;
51048;SDS011;37084;55.228;36.450;2022-09-06T08:19:06;1.23;;;0.70;;
51048;SDS011;37084;55.228;36.450;2022-09-06T08:22:11;0.93;;;0.93;;
51048;SDS011;37084;55.228;36.450;2022-09-06T08:25:13;0.80;;;0.80;;
51048;SDS011;37084;55.228;36.450;2022-09-06T08:28:14;1.05;;;1.00;;
51048;SDS011;37084;55.228;36.450;2022-09-06T08:31:16;0.98;;;0.98;;
51048;SDS011;37084;55.228;36.450;2022-09-06T08:34:17;1.42;;;0.57;;
51048;SDS011;37084;55.228;36.450;2022-09-06T08:37:19;1.30;;;1.02;;
51048;SDS011;37084;55.228;36.450;2022-09-06T08:40:20;0.93;;;0.93;;
51048;SDS011;37084;55.228;36.450;2022-09-06T08:43:23;1.00;;;0.90;;
51048;SDS011;37084;55.228;36.450;2022-09-06T08:46:47;0.70;;;0.70;;
51048;SDS011;37084;55.228;36.450;2022-09-06T08:56:18;0.80;;;0.63;;
51048;SDS011;37084;55.228;36.450;2022-09-06T08:59:25;0.95;;;0.95;;
51048;SDS011;37084;55.228;36.450;2022-09-06T09:02:31;1.10;;;0.63;;
51048;SDS011;37084;55.228;36.450;2022-09-06T09:05:43;0.90;;;0.90;;
51048;SDS011;37084;55.228;36.450;2022-09-06T09:09:07;0.65;;;0.60;;
51048;SDS011;37084;55.228;36.450;2022-09-06T09:12:14;0.70;;;0.65;;
51048;SDS011;37084;55.228;36.450;2022-09-06T09:15:16;2.40;;;0.80;;
51048;SDS011;37084;55.228;36.450;2022-09-06T09:18:29;0.73;;;0.73;;
51048;SDS011;37084;55.228;36.450;2022-09-06T09:21:33;0.90;;;0.80;;
51048;SDS011;37084;55.228;36.450;2022-09-06T09:24:36;1.52;;;0.95;;
51048;SDS011;37084;55.228;36.450;2022-09-06T09:27:38;0.75;;;0.73;;
51048;SDS011;37084;55.228;36.450;2022-09-06T09:30:45;1.10;;;0.73;;
51048;SDS011;37084;55.228;36.450;2022-09-06T09:33:49;1.42;;;0.60;;
51048;SDS011;37084;55.228;36.450;2022-09-06T09:37:08;2.50;;;0.82;;
51048;SDS011;37084;55.228;36.450;2022-09-06T09:40:38;1.40;;;0.80;;
51048;SDS011;37084;55.228;36.450;2022-09-06T09:43:41;0.82;;;0.82;;
51048;SDS011;37084;55.228;36.450;2022-09-06T09:46:56;0.85;;;0.75;;
51048;SDS011;37084;55.228;36.450;2022-09-06T09:49:57;1.13;;;0.65;;
51048;SDS011;37084;55.228;36.450;2022-09-06T09:53:11;0.57;;;0.57;;
51048;SDS011;37084;55.228;36.450;2022-09-06T09:56:15;1.27;;;0.73;;
51048;SDS011;37084;55.228;36.450;2022-09-06T10:00:02;0.90;;;0.73;;
51048;SDS011;37084;55.228;36.450;2022-09-06T10:02:45;0.93;;;0.80;;
51048;SDS011;37084;55.228;36.450;2022-09-06T10:05:56;1.25;;;0.93;;
51048;SDS011;37084;55.228;36.450;2022-09-06T10:12:29;0.98;;;0.98;;
51048;SDS011;37084;55.228;36.450;2022-09-06T10:15:32;0.80;;;0.80;;
51048;SDS011;37084;55.228;36.450;2022-09-06T10:18:37;0.60;;;0.60;;
51048;SDS011;37084;55.228;36.450;2022-09-06T10:21:43;2.58;;;0.60;;
51048;SDS011;37084;55.228;36.450;2022-09-06T10:28:09;1.25;;;0.82;;
51048;SDS011;37084;55.228;36.450;2022-09-06T10:31:24;0.77;;;0.70;;
51048;SDS011;37084;55.228;36.450;2022-09-06T10:38:15;0.70;;;0.70;;
51048;SDS011;37084;55.228;36.450;2022-09-06T10:54:40;1.13;;;0.90;;
51048;SDS011;37084;55.228;36.450;2022-09-06T10:57:45;0.73;;;0.73;;
51048;SDS011;37084;55.228;36.450;2022-09-06T11:00:54;1.23;;;0.80;;
51048;SDS011;37084;55.228;36.450;2022-09-06T11:03:55;0.77;;;0.57;;
51048;SDS011;37084;55.228;36.450;2022-09-06T11:06:59;1.52;;;0.73;;
51048;SDS011;37084;55.228;36.450;2022-09-06T11:10:15;1.80;;;0.70;;
51048;SDS011;37084;55.228;36.450;2022-09-06T11:13:18;1.55;;;0.68;;
51048;SDS011;37084;55.228;36.450;2022-09-06T11:19:26;0.73;;;0.73;;
51048;SDS011;37084;55.228;36.450;2022-09-06T11:29:56;1.60;;;0.75;;
51048;SDS011;37084;55.228;36.450;2022-09-06T11:33:08;0.98;;;0.57;;
51048;SDS011;37084;55.228;36.450;2022-09-06T11:39:47;1.25;;;0.75;;
51048;SDS011;37084;55.228;36.450;2022-09-06T11:43:17;0.80;;;0.73;;
51048;SDS011;37084;55.228;36.450;2022-09-06T11:49:42;1.63;;;1.17;;
51048;SDS011;37084;55.228;36.450;2022-09-06T11:52:55;0.90;;;0.60;;
51048;SDS011;37084;55.228;36.450;2022-09-06T12:02:37;2.72;;;0.70;;
51048;SDS011;37084;55.228;36.450;2022-09-06T12:06:26;0.63;;;0.63;;
51048;SDS011;37084;55.228;36.450;2022-09-06T12:12:41;0.70;;;0.70;;
51048;SDS011;37084;55.228;36.450;2022-09-06T12:15:51;1.30;;;1.20;;
51048;SDS011;37084;55.228;36.450;2022-09-06T12:18:56;1.13;;;0.73;;
51048;SDS011;37084;55.228;36.450;2022-09-06T12:21:58;1.40;;;0.93;;
51048;SDS011;37084;55.228;36.450;2022-09-06T12:28:31;1.45;;;0.90;;
51048;SDS011;37084;55.228;36.450;2022-09-06T12:31:51;0.77;;;0.65;;
51048;SDS011;37084;55.228;36.450;2022-09-06T12:34:55;0.82;;;0.82;;
51048;SDS011;37084;55.228;36.450;2022-09-06T12:37:58;1.75;;;0.60;;
51048;SDS011;37084;55.228;36.450;2022-09-06T12:41:00;1.95;;;0.82;;
51048;SDS011;37084;55.228;36.450;2022-09-06T12:44:04;0.85;;;0.75;;
51048;SDS011;37084;55.228;36.450;2022-09-06T12:47:16;1.00;;;0.63;;
51048;SDS011;37084;55.228;36.450;2022-09-06T12:50:22;1.25;;;0.82;;
51048;SDS011;37084;55.228;36.450;2022-09-06T12:53:26;1.00;;;1.00;;
51048;SDS011;37084;55.228;36.450;2022-09-06T12:56:31;0.60;;;0.60;;
51048;SDS011;37084;55.228;36.450;2022-09-06T12:59:33;1.55;;;0.80;;
51048;SDS011;37084;55.228;36.450;2022-09-06T13:06:15;1.25;;;1.15;;
51048;SDS011;37084;55.228;36.450;2022-09-06T13:09:19;1.05;;;0.88;;
51048;SDS011;37084;55.228;36.450;2022-09-06T13:12:24;0.75;;;0.73;;
51048;SDS011;37084;55.228;36.450;2022-09-06T13:15:29;0.80;;;0.75;;
51048;SDS011;37084;55.228;36.450;2022-09-06T13:18:34;1.25;;;0.90;;
51048;SDS011;37084;55.228;36.450;2022-09-06T13:21:39;1.27;;;0.85;;
51048;SDS011;37084;55.228;36.450;2022-09-06T13:24:44;0.63;;;0.63;;
51048;SDS011;37084;55.228;36.450;2022-09-06T13:27:48;1.65;;;0.98;;
51048;SDS011;37084;55.228;36.450;2022-09-06T13:31:04;1.83;;;0.93;;
51048;SDS011;37084;55.228;36.450;2022-09-06T13:34:08;1.67;;;1.25;;
51048;SDS011;37084;55.228;36.450;2022-09-06T13:37:10;1.13;;;0.88;;
51048;SDS011;37084;55.228;36.450;2022-09-06T13:43:45;2.22;;;0.90;;
51048;SDS011;37084;55.228;36.450;2022-09-06T13:46:52;1.48;;;0.80;;
51048;SDS011;37084;55.228;36.450;2022-09-06T13:49:54;1.15;;;0.70;;
51048;SDS011;37084;55.228;36.450;2022-09-06T13:52:57;1.55;;;0.80;;
51048;SDS011;37084;55.228;36.450;2022-09-06T13:55:59;1.25;;;0.80;;
51048;SDS011;37084;55.228;36.450;2022-09-06T13:59:01;1.23;;;1.00;;
51048;SDS011;37084;55.228;36.450;2022-09-06T14:02:07;1.15;;;1.00;;
51048;SDS011;37084;55.228;36.450;2022-09-06T14:05:09;1.05;;;0.80;;
51048;SDS011;37084;55.228;36.450;2022-09-06T14:08:11;1.13;;;1.02;;
51048;SDS011;37084;55.228;36.450;2022-09-06T14:11:12;1.17;;;0.95;;
51048;SDS011;37084;55.228;36.450;2022-09-06T14:14:14;1.17;;;1.00;;
51048;SDS011;37084;55.228;36.450;2022-09-06T14:17:17;1.63;;;0.82;;
51048;SDS011;37084;55.228;36.450;2022-09-06T14:20:20;1.10;;;0.93;;
51048;SDS011;37084;55.228;36.450;2022-09-06T14:23:21;0.80;;;0.70;;
51048;SDS011;37084;55.228;36.450;2022-09-06T14:26:26;1.50;;;1.40;;
51048;SDS011;37084;55.228;36.450;2022-09-06T14:29:29;1.50;;;1.40;;
51048;SDS011;37084;55.228;36.450;2022-09-06T14:32:30;1.20;;;1.00;;
51048;SDS011;37084;55.228;36.450;2022-09-06T14:35:32;1.92;;;1.25;;
51048;SDS011;37084;55.228;36.450;2022-09-06T14:38:35;1.38;;;1.27;;
51048;SDS011;37084;55.228;36.450;2022-09-06T14:41:37;1.40;;;0.93;;
51048;SDS011;37084;55.228;36.450;2022-09-06T14:44:39;1.85;;;1.05;;
51048;SDS011;37084;55.228;36.450;2022-09-06T14:47:40;2.33;;;1.42;;
51048;SDS011;37084;55.228;36.450;2022-09-06T14:50:42;1.23;;;1.13;;
51048;SDS011;37084;55.228;36.450;2022-09-06T14:53:43;1.58;;;1.23;;
51048;SDS011;37084;55.228;36.450;2022-09-06T14:56:47;1.60;;;1.33;;
51048;SDS011;37084;55.228;36.450;2022-09-06T14:59:48;1.60;;;1.08;;
51048;SDS011;37084;55.228;36.450;2022-09-06T15:02:49;1.80;;;1.38;;
51048;SDS011;37084;55.228;36.450;2022-09-06T15:05:50;1.67;;;1.10;;
51048;SDS011;37084;55.228;36.450;2022-09-06T15:08:53;1.90;;;1.13;;
51048;SDS011;37084;55.228;36.450;2022-09-06T15:11:54;1.25;;;0.90;;
51048;SDS011;37084;55.228;36.450;2022-09-06T15:14:58;1.25;;;0.90;;
51048;SDS011;37084;55.228;36.450;2022-09-06T15:18:00;1.23;;;1.13;;
51048;SDS011;37084;55.228;36.450;2022-09-06T15:21:09;1.70;;;1.10;;
51048;SDS011;37084;55.228;36.450;2022-09-06T15:24:11;2.15;;;0.90;;
51048;SDS011;37084;55.228;36.450;2022-09-06T15:27:13;1.55;;;1.33;;
51048;SDS011;37084;55.228;36.450;2022-09-06T15:30:14;1.67;;;1.05;;
51048;SDS011;37084;55.228;36.450;2022-09-06T15:33:17;1.90;;;1.10;;
51048;SDS011;37084;55.228;36.450;2022-09-06T15:36:19;1.63;;;1.52;;
51048;SDS011;37084;55.228;36.450;2022-09-06T15:39:21;1.20;;;1.00;;
51048;SDS011;37084;55.228;36.450;2022-09-06T15:42:22;1.52;;;1.00;;
51048;SDS011;37084;55.228;36.450;2022-09-06T15:45:26;1.38;;;0.90;;
51048;SDS011;37084;55.228;36.450;2022-09-06T15:48:27;1.30;;;1.13;;
51048;SDS011;37084;55.228;36.450;2022-09-06T15:51:29;1.75;;;1.13;;
51048;SDS011;37084;55.228;36.450;2022-09-06T15:54:30;1.15;;;0.90;;
51048;SDS011;37084;55.228;36.450;2022-09-06T15:57:51;1.38;;;1.17;;
51048;SDS011;37084;55.228;36.450;2022-09-06T16:01:06;2.15;;;1.33;;
51048;SDS011;37084;55.228;36.450;2022-09-06T16:04:11;2.50;;;0.98;;
51048;SDS011;37084;55.228;36.450;2022-09-06T16:07:13;1.33;;;1.00;;
51048;SDS011;37084;55.228;36.450;2022-09-06T16:10:17;2.17;;;0.98;;
51048;SDS011;37084;55.228;36.450;2022-09-06T16:13:20;2.38;;;1.70;;
51048;SDS011;37084;55.228;36.450;2022-09-06T16:16:21;2.35;;;1.02;;
51048;SDS011;37084;55.228;36.450;2022-09-06T16:19:23;1.20;;;0.95;;
51048;SDS011;37084;55.228;36.450;2022-09-06T16:22:27;2.40;;;1.10;;
51048;SDS011;37084;55.228;36.450;2022-09-06T16:25:30;1.60;;;1.05;;
51048;SDS011;37084;55.228;36.450;2022-09-06T16:28:34;2.97;;;1.52;;
51048;SDS011;37084;55.228;36.450;2022-09-06T16:31:36;1.67;;;1.10;;
51048;SDS011;37084;55.228;36.450;2022-09-06T16:34:38;1.40;;;1.10;;
51048;SDS011;37084;55.228;36.450;2022-09-06T16:37:40;1.50;;;1.10;;
51048;SDS011;37084;55.228;36.450;2022-09-06T16:40:44;1.55;;;0.90;;
51048;SDS011;37084;55.228;36.450;2022-09-06T16:43:46;3.00;;;1.35;;
51048;SDS011;37084;55.228;36.450;2022-09-06T16:46:52;2.33;;;1.38;;
51048;SDS011;37084;55.228;36.450;2022-09-06T16:49:55;3.88;;;1.58;;
51048;SDS011;37084;55.228;36.450;2022-09-06T16:52:57;2.72;;;1.63;;
51048;SDS011;37084;55.228;36.450;2022-09-06T16:56:00;2.85;;;1.40;;
51048;SDS011;37084;55.228;36.450;2022-09-06T16:59:04;2.90;;;1.73;;
51048;SDS011;37084;55.228;36.450;2022-09-06T17:02:07;2.95;;;1.85;;
51048;SDS011;37084;55.228;36.450;2022-09-06T17:05:09;2.30;;;1.55;;
51048;SDS011;37084;55.228;36.450;2022-09-06T17:08:11;1.73;;;1.33;;
51048;SDS011;37084;55.228;36.450;2022-09-06T17:11:16;2.42;;;1.45;;
51048;SDS011;37084;55.228;36.450;2022-09-06T17:14:23;2.40;;;1.65;;
51048;SDS011;37084;55.228;36.450;2022-09-06T17:17:27;2.40;;;1.15;;
51048;SDS011;37084;55.228;36.450;2022-09-06T17:20:32;2.20;;;1.15;;
51048;SDS011;37084;55.228;36.450;2022-09-06T17:23:34;1.95;;;1.20;;
51048;SDS011;37084;55.228;36.450;2022-09-06T17:26:36;3.30;;;1.70;;
51048;SDS011;37084;55.228;36.450;2022-09-06T17:29:38;2.95;;;2.28;;
51048;SDS011;37084;55.228;36.450;2022-09-06T17:32:40;3.50;;;1.60;;
51048;SDS011;37084;55.228;36.450;2022-09-06T17:35:41;3.00;;;1.73;;
51048;SDS011;37084;55.228;36.450;2022-09-06T17:38:44;2.88;;;2.17;;
51048;SDS011;37084;55.228;36.450;2022-09-06T17:41:48;3.72;;;2.22;;
51048;SDS011;37084;55.228;36.450;2022-09-06T17:44:50;4.63;;;2.70;;
51048;SDS011;37084;55.228;36.450;2022-09-06T17:47:53;4.63;;;3.22;;
51048;SDS011;37084;55.228;36.450;2022-09-06T17:50:55;5.95;;;3.17;;
51048;SDS011;37084;55.228;36.450;2022-09-06T17:53:57;7.30;;;4.38;;
51048;SDS011;37084;55.228;36.450;2022-09-06T17:57:07;18.05;;;8.55;;
51048;SDS011;37084;55.228;36.450;2022-09-06T18:00:10;8.00;;;4.68;;
51048;SDS011;37084;55.228;36.450;2022-09-06T18:03:14;7.88;;;4.22;;
51048;SDS011;37084;55.228;36.450;2022-09-06T18:06:19;3.42;;;2.15;;
51048;SDS011;37084;55.228;36.450;2022-09-06T18:09:24;3.58;;;1.80;;
51048;SDS011;37084;55.228;36.450;2022-09-06T18:12:25;2.92;;;2.00;;
51048;SDS011;37084;55.228;36.450;2022-09-06T18:15:29;3.00;;;1.88;;
51048;SDS011;37084;55.228;36.450;2022-09-06T18:18:32;3.50;;;1.83;;
51048;SDS011;37084;55.228;36.450;2022-09-06T18:21:35;4.78;;;1.95;;
51048;SDS011;37084;55.228;36.450;2022-09-06T18:24:41;2.45;;;1.95;;
51048;SDS011;37084;55.228;36.450;2022-09-06T18:27:42;3.53;;;1.92;;
51048;SDS011;37084;55.228;36.450;2022-09-06T18:30:46;2.92;;;1.70;;
51048;SDS011;37084;55.228;36.450;2022-09-06T18:33:48;2.58;;;1.70;;
51048;SDS011;37084;55.228;36.450;2022-09-06T18:36:53;3.53;;;1.75;;
51048;SDS011;37084;55.228;36.450;2022-09-06T18:39:54;3.47;;;1.98;;
51048;SDS011;37084;55.228;36.450;2022-09-06T18:43:01;3.30;;;2.33;;
51048;SDS011;37084;55.228;36.450;2022-09-06T18:46:10;3.33;;;2.15;;
51048;SDS011;37084;55.228;36.450;2022-09-06T18:49:16;3.25;;;1.75;;
51048;SDS011;37084;55.228;36.450;2022-09-06T18:52:24;2.47;;;1.77;;
51048;SDS011;37084;55.228;36.450;2022-09-06T18:55:28;2.42;;;1.60;;
51048;SDS011;37084;55.228;36.450;2022-09-06T18:58:37;3.10;;;2.17;;
51048;SDS011;37084;55.228;36.450;2022-09-06T19:01:41;3.45;;;1.77;;
51048;SDS011;37084;55.228;36.450;2022-09-06T19:04:42;3.35;;;1.75;;
51048;SDS011;37084;55.228;36.450;2022-09-06T19:07:45;2.60;;;1.83;;
51048;SDS011;37084;55.228;36.450;2022-09-06T19:10:47;4.45;;;1.50;;
51048;SDS011;37084;55.228;36.450;2022-09-06T19:13:50;3.42;;;2.17;;
51048;SDS011;37084;55.228;36.450;2022-09-06T19:16:53;3.08;;;2.00;;
51048;SDS011;37084;55.228;36.450;2022-09-06T19:19:59;3.20;;;1.67;;
51048;SDS011;37084;55.228;36.450;2022-09-06T19:23:02;4.30;;;2.35;;
51048;SDS011;37084;55.228;36.450;2022-09-06T19:26:08;4.78;;;1.90;;
51048;SDS011;37084;55.228;36.450;2022-09-06T19:29:17;3.95;;;1.63;;
51048;SDS011;37084;55.228;36.450;2022-09-06T19:32:18;3.85;;;1.45;;
51048;SDS011;37084;55.228;36.450;2022-09-06T19:35:21;3.35;;;1.73;;
51048;SDS011;37084;55.228;36.450;2022-09-06T19:38:24;3.65;;;1.60;;
51048;SDS011;37084;55.228;36.450;2022-09-06T19:41:28;3.38;;;2.42;;
51048;SDS011;37084;55.228;36.450;2022-09-06T19:44:30;3.00;;;1.40;;